Terminal Aerodrome Forecast
Issued by NWS Albuquerque, NM

Home | Current Version | Previous Version | Text Only | Print | Product List | Glossary On
Versions: 1 2 3 4 5 6 7 8 9 10 11 12 13 14
000
FTUS45 KABQ 042346
TAFABQ
TAF
KABQ 042346Z 0500/0524 19006KT P6SM VCSH SCT070 BKN100
     FM050600 VRB04KT P6SM BKN040
      TEMPO 0506/0510 5SM BR BKN020
     FM051700 21006KT P6SM SCT060 SCT200
     FM052100 24007KT P6SM VCTS BKN090CB=

USA.gov is the U.S. government's official web portal to all federal, state and local government web resources and services.